Time;durP1;ratioP1;P1;durP2;ratioP2;P2;SDS_P1;SDS_P2;PMS_P1;PMS_P2;Temp;Humidity;BMP_temperature;BMP_pressure;BME280_temperature;BME280_humidity;BME280_pressure;Samples;Min_cycle;Max_cycle;Signal;HPM_P1;HPM_P2
2022/01/03 00:01:47;;;;;;;6.47;3.92;;;;;;;19.92;39.96;100144.72;5132522;27;20035;-64
2022/01/03 00:04:14;;;;;;;6.40;4.00;;;;;;;20.25;38.94;100145.31;5132532;27;20049;-64
2022/01/03 00:06:39;;;;;;;5.22;3.85;;;;;;;20.00;39.57;100149.31;5131356;28;20051;-64
2022/01/03 00:09:06;;;;;;;5.93;4.03;;;;;;;19.79;39.88;100142.00;5132531;27;20054;-64
2022/01/03 00:11:32;;;;;;;5.88;4.32;;;;;;;19.64;40.31;100141.88;5132448;27;20052;-55
2022/01/03 00:13:57;;;;;;;5.13;3.40;;;;;;;19.79;39.92;100150.31;5132615;27;20039;-55
2022/01/03 00:16:24;;;;;;;5.63;4.32;;;;;;;20.96;37.96;100134.56;5131341;27;20092;-55
2022/01/03 00:18:51;;;;;;;6.05;4.00;;;;;;;20.75;38.28;100126.47;5132521;27;20489;-55
2022/01/03 00:21:18;;;;;;;6.85;3.88;;;;;;;20.42;38.60;100133.09;5132363;28;20392;-64
2022/01/03 00:23:51;;;;;;;5.75;3.85;;;;;;;20.17;39.26;100140.72;5132327;27;20058;-63
2022/01/03 00:26:23;;;;;;;5.60;3.90;;;;;;;19.97;39.76;100125.06;5132372;27;20526;-64
2022/01/03 00:28:56;;;;;;;6.38;4.00;;;;;;;19.81;40.10;100107.53;5132312;27;20718;-64
2022/01/03 00:31:29;;;;;;;6.32;4.30;;;;;;;19.67;40.17;100125.34;5132243;27;20031;-55
2022/01/03 00:33:56;;;;;;;;;;;;;;;19.60;40.37;100139.00;5132815;27;20047;-55
2022/01/03 00:36:22;;;;;;;5.50;3.90;;;;;;;19.45;40.60;100134.94;5132132;27;19976;-55
2022/01/03 00:38:47;;;;;;;7.00;4.32;;;;;;;19.40;40.77;100139.91;5132054;27;20444;-55
2022/01/03 00:41:13;;;;;;;4.90;3.90;;;;;;;19.35;40.88;100134.59;5132178;27;20069;-55
2022/01/03 00:43:38;;;;;;;6.13;4.38;;;;;;;19.30;41.05;100134.84;5132019;27;20043;-55
2022/01/03 00:46:04;;;;;;;5.97;4.20;;;;;;;19.25;41.20;100117.28;5131991;27;20047;-55
2022/01/03 00:48:32;;;;;;;6.05;4.40;;;;;;;19.20;41.14;100111.94;5131993;27;20497;-55
2022/01/03 00:51:04;;;;;;;6.65;4.78;;;;;;;19.17;41.13;100111.84;5131874;27;20043;-55
2022/01/03 00:53:29;;;;;;;6.80;4.47;;;;;;;19.15;41.23;100114.16;5131812;27;20066;-55
2022/01/03 00:56:07;;;;;;;6.57;4.40;;;;;;;19.13;41.20;100108.13;5131824;27;20422;-55
2022/01/03 00:58:43;;;;;;;6.40;4.13;;;;;;;19.10;41.10;100104.09;5131756;27;20040;-55
2022/01/03 01:01:10;;;;;;;6.05;4.22;;;;;;;19.10;41.32;100103.28;5131745;27;20127;-55
2022/01/03 01:03:38;;;;;;;6.10;4.15;;;;;;;19.10;41.26;100106.88;5131770;27;20116;-64
2022/01/03 01:06:06;;;;;;;6.20;4.15;;;;;;;19.10;41.30;100106.06;5131561;27;20503;-63
2022/01/03 01:08:36;;;;;;;5.72;3.92;;;;;;;19.07;41.38;100099.22;5131955;27;20054;-63
2022/01/03 01:11:07;;;;;;;6.47;4.53;;;;;;;19.06;41.41;100105.94;5131283;27;20050;-64
2022/01/03 01:13:35;;;;;;;5.57;4.13;;;;;;;19.06;41.28;100100.38;5131513;27;20077;-64
2022/01/03 01:16:04;;;;;;;5.35;3.70;;;;;;;19.06;41.28;100103.16;5131341;27;20039;-64
2022/01/03 01:18:35;;;;;;;5.72;4.25;;;;;;;19.06;41.35;100096.81;5130412;27;20110;-64
2022/01/03 01:21:00;;;;;;;8.88;4.30;;;;;;;19.04;41.38;100086.06;5131336;27;20058;-55
2022/01/03 01:23:26;;;;;;;7.18;3.92;;;;;;;19.05;41.31;100078.56;5131276;27;20039;-55
2022/01/03 01:28:17;;;;;;;5.82;4.25;;;;;;;19.05;41.43;100065.50;5130760;27;20046;-55
2022/01/03 01:30:43;;;;;;;6.55;4.50;;;;;;;19.06;41.26;100064.34;5130860;28;20082;-55
2022/01/03 01:33:14;;;;;;;7.07;4.82;;;;;;;19.05;41.38;100082.13;5131285;27;20263;-55
2022/01/03 01:35:55;;;;;;;6.15;4.63;;;;;;;19.02;41.40;100082.84;5131086;27;20039;-55
2022/01/03 01:38:23;;;;;;;5.65;4.10;;;;;;;19.02;41.48;100080.06;5128917;28;20047;-55
2022/01/03 01:40:50;;;;;;;6.78;4.38;;;;;;;19.01;41.63;100072.09;5131277;27;20484;-55
2022/01/03 01:43:39;;;;;;;5.80;4.18;;;;;;;19.04;41.43;100052.81;5127308;28;20031;-55
2022/01/03 01:46:10;;;;;;;5.93;4.00;;;;;;;19.04;41.60;100058.34;5130463;28;20084;-55
2022/01/03 01:48:37;;;;;;;6.85;4.28;;;;;;;19.03;41.50;100045.66;5131077;27;20039;-56
2022/01/03 01:51:05;;;;;;;7.10;4.38;;;;;;;19.02;41.43;100049.56;5131006;27;20138;-55
2022/01/03 01:53:30;;;;;;;5.65;4.40;;;;;;;19.03;41.34;100067.81;5131173;27;20043;-55
2022/01/03 01:55:58;;;;;;;5.40;3.95;;;;;;;19.04;41.58;100060.31;5130865;27;20054;-55
2022/01/03 01:58:36;;;;;;;5.88;4.32;;;;;;;19.02;41.59;100032.94;5130781;28;20532;-55
2022/01/03 02:01:06;;;;;;;6.60;4.63;;;;;;;19.04;41.39;100041.72;5130827;27;20049;-55
2022/01/03 02:03:39;;;;;;;6.03;4.20;;;;;;;19.02;41.56;100019.09;5130769;27;20108;-55
2022/01/03 02:06:20;;;;;;;6.55;4.70;;;;;;;19.03;41.66;100017.91;5130821;27;20039;-55
2022/01/03 02:09:05;;;;;;;5.93;4.25;;;;;;;19.03;41.63;100017.91;5130528;28;20503;-55
2022/01/03 02:11:40;;;;;;;6.35;4.47;;;;;;;19.03;41.52;100023.47;5130579;27;20410;-55
2022/01/03 02:14:06;;;;;;;6.30;4.40;;;;;;;19.00;41.63;100020.56;5131063;28;20426;-55
2022/01/03 02:16:33;;;;;;;7.25;4.70;;;;;;;19.02;41.34;100021.84;5130730;27;20051;-55
2022/01/03 02:18:58;;;;;;;6.53;4.22;;;;;;;19.01;41.47;100023.00;5130536;27;20130;-56
2022/01/03 02:21:23;;;;;;;6.30;4.32;;;;;;;19.02;41.41;100019.09;5130613;28;20039;-55
2022/01/03 02:23:49;;;;;;;5.90;4.38;;;;;;;19.04;41.49;100024.28;5130582;27;20047;-55
2022/01/03 02:26:14;;;;;;;6.05;4.30;;;;;;;19.03;41.66;100017.91;5130276;27;20051;-55
2022/01/03 02:28:40;;;;;;;7.05;4.70;;;;;;;18.99;41.55;100011.44;5130453;28;20044;-55
2022/01/03 02:31:05;;;;;;;8.07;4.15;;;;;;;19.03;41.48;100012.38;5130705;27;20516;-55
2022/01/03 02:33:32;;;;;;;6.65;4.40;;;;;;;19.03;41.57;100004.06;5130506;27;20043;-55
2022/01/03 02:35:58;;;;;;;6.82;4.70;;;;;;;19.04;41.46;100002.09;5130416;27;20059;-55
2022/01/03 02:38:24;;;;;;;6.88;4.57;;;;;;;19.05;41.45;100012.03;5130384;27;20403;-55
2022/01/03 02:40:49;;;;;;;6.07;4.40;;;;;;;19.01;41.57;100019.44;5132958;27;20399;-55
2022/01/03 02:43:15;;;;;;;5.78;4.50;;;;;;;19.01;41.51;100019.44;5133988;27;20128;-55
2022/01/03 02:45:41;;;;;;;7.30;4.97;;;;;;;19.01;41.31;100025.78;5133891;27;20114;-55
2022/01/03 02:48:07;;;;;;;7.93;5.05;;;;;;;18.98;41.63;100027.28;5133876;27;20546;-55
2022/01/03 02:50:34;;;;;;;6.95;4.93;;;;;;;19.00;41.31;100026.09;5133666;27;20058;-55
2022/01/03 02:53:00;;;;;;;7.00;4.43;;;;;;;18.98;41.31;100035.59;5133667;27;20035;-55
2022/01/03 02:55:29;;;;;;;6.97;4.70;;;;;;;19.00;41.46;100026.91;5133768;27;20392;-55
2022/01/03 02:57:59;;;;;;;7.00;4.78;;;;;;;18.98;41.31;100027.28;5134085;27;20043;-55
2022/01/03 03:00:29;;;;;;;6.97;4.57;;;;;;;19.00;41.42;100017.78;5133920;27;20046;-55
2022/01/03 03:02:55;;;;;;;6.93;4.78;;;;;;;19.02;41.84;100032.13;5129960;28;20104;-55
2022/01/03 03:05:21;;;;;;;6.63;4.65;;;;;;;18.99;41.67;100019.75;5133453;27;20407;-55
2022/01/03 03:07:48;;;;;;;7.55;5.45;;;;;;;18.98;41.59;100029.22;5133514;27;20047;-55
2022/01/03 03:10:17;;;;;;;7.43;5.15;;;;;;;18.97;41.57;100024.84;5133385;27;20490;-55
2022/01/03 03:12:43;;;;;;;7.25;5.30;;;;;;;18.97;41.57;100019.31;5133379;27;20043;-55
2022/01/03 03:15:11;;;;;;;6.95;5.30;;;;;;;18.97;41.62;100020.13;5133549;27;20352;-55
2022/01/03 03:17:37;;;;;;;7.70;5.05;;;;;;;18.98;41.69;100032.00;5133338;27;20046;-55
2022/01/03 03:20:09;;;;;;;8.13;5.80;;;;;;;19.00;41.54;100039.97;5133328;28;20050;-55
2022/01/03 03:22:36;;;;;;;7.97;5.63;;;;;;;19.01;41.91;100047.97;5133333;28;20039;-55
2022/01/03 03:25:04;;;;;;;7.57;5.05;;;;;;;19.01;41.77;100042.41;5133282;27;20388;-55
2022/01/03 03:27:30;;;;;;;8.95;5.85;;;;;;;18.97;41.59;100039.50;5133221;27;20043;-55
2022/01/03 03:29:56;;;;;;;7.88;5.28;;;;;;;19.00;41.80;100048.28;5133018;27;20053;-55
2022/01/03 03:32:25;;;;;;;7.40;5.32;;;;;;;19.00;41.92;100034.44;5133323;27;20468;-55
2022/01/03 03:34:50;;;;;;;7.80;5.63;;;;;;;19.03;41.75;100031.78;5133077;27;20043;-55
2022/01/03 03:37:17;;;;;;;8.45;5.65;;;;;;;19.04;41.62;100030.63;5133296;27;20111;-55
2022/01/03 03:39:43;;;;;;;8.63;6.03;;;;;;;19.02;41.78;100029.38;5133176;27;20126;-55
2022/01/03 03:42:11;;;;;;;8.98;5.85;;;;;;;19.02;41.67;100021.03;5133231;27;20048;-55
2022/01/03 03:44:37;;;;;;;10.40;6.30;;;;;;;19.02;41.77;100021.84;5133176;28;20047;-55
2022/01/03 03:47:04;;;;;;;7.75;5.47;;;;;;;19.02;41.76;100015.50;5133080;27;20050;-64
2022/01/03 03:49:30;;;;;;;9.27;5.88;;;;;;;19.01;41.74;100002.81;5132879;27;20150;-64
2022/01/03 03:51:55;;;;;;;8.80;5.50;;;;;;;19.00;41.74;100009.47;5132643;27;20500;-64
2022/01/03 03:54:21;;;;;;;8.93;5.95;;;;;;;19.00;41.65;100026.91;5132741;28;20043;-64
2022/01/03 03:56:46;;;;;;;7.70;5.60;;;;;;;19.01;41.80;100027.75;5132832;27;20043;-64
2022/01/03 03:59:11;;;;;;;9.32;5.80;;;;;;;19.03;41.59;100026.25;5132936;27;20044;-63
2022/01/03 04:01:37;;;;;;;7.70;5.65;;;;;;;19.01;41.72;100023.00;5132702;27;20112;-64
2022/01/03 04:04:03;;;;;;;8.20;5.95;;;;;;;19.02;41.47;100013.53;5132655;28;20039;-64
2022/01/03 04:06:28;;;;;;;7.68;5.53;;;;;;;19.02;41.96;100016.31;5132653;27;20050;-63
2022/01/03 04:08:54;;;;;;;8.63;5.50;;;;;;;19.01;41.81;99992.50;5131330;28;20063;-55
2022/01/03 04:11:20;;;;;;;7.28;5.35;;;;;;;18.99;41.59;100000.34;5132464;27;20047;-55
2022/01/03 04:13:45;;;;;;;8.20;5.80;;;;;;;18.99;41.79;99992.03;5132597;27;20047;-55
2022/01/03 04:16:12;;;;;;;7.80;5.45;;;;;;;19.00;41.66;99985.34;5132613;27;20398;-55
2022/01/03 04:18:37;;;;;;;11.32;6.32;;;;;;;19.01;41.48;99989.75;5132507;27;20509;-64
2022/01/03 04:21:03;;;;;;;8.48;5.93;;;;;;;19.03;41.93;99992.97;5132483;27;20039;-64
2022/01/03 04:23:28;;;;;;;9.35;6.05;;;;;;;19.00;41.70;99992.84;5132299;27;20047;-64
2022/01/03 04:25:54;;;;;;;7.28;5.35;;;;;;;19.02;41.76;99985.81;5132413;28;20335;-63
2022/01/03 04:28:20;;;;;;;7.80;5.57;;;;;;;19.02;41.82;99971.94;5132378;28;20043;-64
2022/01/03 04:30:45;;;;;;;7.53;5.57;;;;;;;19.02;41.76;99966.41;5132081;27;20089;-64
2022/01/03 04:33:11;;;;;;;7.53;5.35;;;;;;;19.03;41.62;99947.81;5132011;27;20066;-64
2022/01/03 04:35:37;;;;;;;8.93;6.10;;;;;;;19.02;41.54;99966.41;5132109;28;20080;-64
2022/01/03 04:38:03;;;;;;;8.05;5.50;;;;;;;19.02;41.79;99990.56;5132112;27;20053;-63
2022/01/03 04:40:29;;;;;;;8.68;5.82;;;;;;;19.01;41.69;99991.72;5132228;27;20251;-64
2022/01/03 04:42:54;;;;;;;8.20;5.68;;;;;;;19.01;41.92;99984.19;5132062;27;20039;-64
2022/01/03 04:45:20;;;;;;;8.90;6.10;;;;;;;19.02;41.59;99974.72;5132148;28;20043;-64
2022/01/03 04:47:48;;;;;;;7.68;5.57;;;;;;;19.01;41.88;99961.22;5132384;27;20046;-65
2022/01/03 04:50:14;;;;;;;9.18;5.80;;;;;;;19.03;41.56;99970.78;5132568;27;20075;-64
2022/01/03 04:52:39;;;;;;;7.25;5.32;;;;;;;19.32;40.89;99977.19;5132220;28;20082;-64
2022/01/03 04:55:05;;;;;;;6.95;4.95;;;;;;;20.62;38.38;99961.72;5132382;28;20039;-64
2022/01/03 04:57:31;;;;;;;7.38;5.10;;;;;;;20.46;38.49;99942.28;5131920;27;20935;-64
2022/01/03 04:59:56;;;;;;;7.18;5.07;;;;;;;20.20;39.00;99953.09;5131914;27;20047;-64
2022/01/03 05:02:22;;;;;;;7.13;5.18;;;;;;;19.95;39.55;99958.81;5130974;27;20040;-64
2022/01/03 05:04:47;;;;;;;7.70;5.60;;;;;;;19.78;40.00;99962.69;5131742;27;20059;-64
2022/01/03 05:07:13;;;;;;;6.63;4.82;;;;;;;19.64;40.10;99970.63;5131608;28;20474;-64
2022/01/03 05:09:38;;;;;;;7.60;5.57;;;;;;;19.53;40.69;99963.94;5131686;28;20091;-64
2022/01/03 05:12:04;;;;;;;6.25;4.53;;;;;;;19.44;40.73;99960.53;5131710;28;20434;-64
2022/01/03 05:14:30;;;;;;;7.18;5.07;;;;;;;19.40;41.06;99941.00;5131510;28;20399;-64
2022/01/03 05:16:57;;;;;;;7.30;5.38;;;;;;;19.32;41.03;99943.91;5131506;27;20039;-64
2022/01/03 05:19:23;;;;;;;7.97;5.40;;;;;;;19.26;41.03;99948.91;5131309;27;20050;-64
2022/01/03 05:21:48;;;;;;;7.45;5.07;;;;;;;19.24;41.20;99946.47;5131411;27;20051;-64
2022/01/03 05:24:14;;;;;;;7.30;5.07;;;;;;;19.22;41.55;99956.31;5131483;27;20176;-64
2022/01/03 05:26:39;;;;;;;7.43;4.95;;;;;;;19.21;41.71;99968.53;5131332;28;20047;-64
2022/01/03 05:29:05;;;;;;;5.75;4.40;;;;;;;19.21;41.86;99963.81;5131474;27;20053;-64
2022/01/03 05:31:31;;;;;;;6.00;4.20;;;;;;;19.18;42.39;99956.19;5131194;27;20039;-64
2022/01/03 05:33:56;;;;;;;6.18;4.20;;;;;;;19.16;42.04;99946.63;5121789;27;20427;-64
2022/01/03 05:36:22;;;;;;;5.60;4.00;;;;;;;19.14;41.92;99954.47;5110776;28;20116;-64
2022/01/03 05:38:48;;;;;;;5.30;3.97;;;;;;;19.14;42.35;99968.31;5110942;28;20036;-64
2022/01/03 05:41:14;;;;;;;5.13;3.80;;;;;;;19.14;42.22;99968.31;5110667;28;20096;-64
2022/01/03 05:43:39;;;;;;;5.03;3.50;;;;;;;19.14;42.29;99963.59;5110604;28;20040;-64
2022/01/03 05:46:05;;;;;;;5.22;3.70;;;;;;;19.13;42.17;99952.84;5110495;28;20220;-64
2022/01/03 05:48:30;;;;;;;5.47;4.22;;;;;;;19.11;42.10;99969.84;5110522;28;20039;-64
2022/01/03 05:50:56;;;;;;;4.47;3.28;;;;;;;19.11;42.43;99967.06;5110457;28;20043;-64
2022/01/03 05:53:21;;;;;;;4.60;3.55;;;;;;;19.10;42.45;99959.91;5110374;28;20044;-64
2022/01/03 05:55:46;;;;;;;5.70;4.03;;;;;;;19.08;42.62;99967.78;5110279;28;20046;-55
2022/01/03 05:58:15;;;;;;;4.53;3.50;;;;;;;19.10;42.30;99976.56;5110317;28;20035;-55
2022/01/03 06:00:41;;;;;;;4.95;3.30;;;;;;;19.09;42.50;99965.81;5110480;28;20039;-55
2022/01/03 06:03:07;;;;;;;5.07;3.50;;;;;;;19.08;42.82;99967.78;5110424;28;20085;-55
2022/01/03 06:08:01;;;;;;;5.38;3.45;;;;;;;19.09;42.73;99977.72;5110265;28;20052;-55
2022/01/03 06:10:27;;;;;;;4.90;3.28;;;;;;;19.09;42.61;99977.72;5110188;28;20063;-55
2022/01/03 06:12:53;;;;;;;4.43;3.38;;;;;;;19.08;42.99;99969.75;5110149;28;20040;-55
2022/01/03 06:15:21;;;;;;;4.55;3.25;;;;;;;19.07;42.98;99965.34;5110138;28;20050;-55
2022/01/03 06:17:47;;;;;;;4.15;3.25;;;;;;;19.07;42.74;99963.38;5110180;28;20057;-55
2022/01/03 06:20:13;;;;;;;4.10;2.97;;;;;;;19.07;42.96;99968.91;5109944;28;20066;-55
2022/01/03 06:22:40;;;;;;;4.72;3.53;;;;;;;19.08;42.14;99970.56;5110050;28;20130;-55
2022/01/03 06:25:06;;;;;;;4.00;3.05;;;;;;;19.07;42.50;99963.38;5109952;28;20096;-55
2022/01/03 06:27:31;;;;;;;4.18;3.08;;;;;;;19.10;42.56;99956.34;5109808;28;20047;-55
2022/01/03 06:29:57;;;;;;;4.47;3.30;;;;;;;19.07;42.47;99976.44;5109792;28;20101;-55
2022/01/03 06:32:22;;;;;;;4.78;3.28;;;;;;;19.08;42.40;99987.19;5109579;28;20046;-54
2022/01/03 06:34:47;;;;;;;3.50;2.70;;;;;;;19.07;42.27;99993.88;5109596;28;20055;-55
2022/01/03 06:37:13;;;;;;;3.78;2.80;;;;;;;19.07;42.65;100006.94;5109953;28;20430;-55
2022/01/03 06:39:38;;;;;;;4.53;3.05;;;;;;;19.07;42.36;99998.59;5109760;28;20044;-55
2022/01/03 06:42:04;;;;;;;3.90;2.90;;;;;;;19.07;42.37;99974.47;5109974;28;20055;-55
2022/01/03 06:44:29;;;;;;;3.95;2.85;;;;;;;19.06;42.34;99950.66;5109701;28;20089;-55
2022/01/03 06:46:55;;;;;;;7.30;2.95;;;;;;;19.08;42.27;99969.75;5109577;28;20040;-55
2022/01/03 06:49:20;;;;;;;6.07;2.72;;;;;;;19.10;42.14;99995.97;5109489;28;20051;-51
2022/01/03 06:51:46;;;;;;;15.75;3.17;;;;;;;19.15;42.21;100015.13;5109583;28;20051;-55
2022/01/03 06:54:11;;;;;;;32.33;4.78;;;;;;;19.15;41.89;100008.78;5109665;28;20043;-55
2022/01/03 06:56:37;;;;;;;33.70;4.53;;;;;;;19.15;42.42;99987.41;5109379;28;20117;-55
2022/01/03 06:59:03;;;;;;;25.58;4.38;;;;;;;19.12;42.32;99977.00;5109423;28;20130;-55
2022/01/03 07:01:29;;;;;;;19.20;3.20;;;;;;;19.13;42.52;99978.63;5109419;28;20055;-55
2022/01/03 07:03:54;;;;;;;27.92;3.45;;;;;;;19.12;42.47;99976.19;5109600;28;20036;-55
2022/01/03 07:06:19;;;;;;;21.80;3.60;;;;;;;19.12;42.28;99974.22;5109741;28;20587;-55
2022/01/03 07:08:45;;;;;;;15.85;3.90;;;;;;;19.12;42.33;99987.28;5109555;28;20036;-55
2022/01/03 07:11:10;;;;;;;24.38;3.28;;;;;;;19.14;42.51;99998.84;5109389;28;20047;-62
2022/01/03 07:13:44;;;;;;;18.35;3.30;;;;;;;19.11;42.39;100005.91;5109433;28;20046;-63
2022/01/03 07:18:56;;;;;;;10.60;3.15;;;;;;;19.11;42.50;99997.56;5109576;28;20058;-55
2022/01/03 07:21:24;;;;;;;12.88;3.53;;;;;;;19.12;42.47;100013.06;5109331;28;20047;-55
2022/01/03 07:23:49;;;;;;;8.13;2.95;;;;;;;19.13;42.79;100006.34;5109136;28;20082;-55
2022/01/03 07:26:15;;;;;;;16.25;3.58;;;;;;;19.14;42.56;99998.84;5111105;28;20086;-55
2022/01/03 07:28:40;;;;;;;8.35;2.80;;;;;;;19.12;42.71;99996.41;5094395;28;20092;-55
2022/01/03 07:31:06;;;;;;;21.17;3.85;;;;;;;19.14;42.63;99999.63;5112587;28;20130;-55
2022/01/03 07:33:31;;;;;;;8.02;2.60;;;;;;;19.15;42.75;99986.59;5112629;28;20047;-55
2022/01/03 07:35:56;;;;;;;8.32;2.80;;;;;;;19.15;42.53;99983.84;5112519;28;20055;-62
2022/01/03 07:38:22;;;;;;;8.20;2.90;;;;;;;19.14;42.54;99996.06;5112479;28;20074;-62
2022/01/03 07:40:47;;;;;;;11.80;3.00;;;;;;;19.15;42.50;99987.41;5112513;28;20036;-63
2022/01/03 07:43:13;;;;;;;12.52;2.90;;;;;;;19.15;42.48;99992.97;5112237;28;20036;-62
2022/01/03 07:45:38;;;;;;;9.80;2.85;;;;;;;19.19;42.73;99995.81;5112069;28;20036;-63
2022/01/03 07:48:04;;;;;;;7.90;2.60;;;;;;;19.21;42.62;99986.00;5112420;28;20043;-63
2022/01/03 07:50:30;;;;;;;4.78;2.83;;;;;;;19.32;41.95;99996.63;5112292;28;20096;-63
2022/01/03 07:52:58;;;;;;;14.40;2.60;;;;;;;20.08;39.94;99995.66;5101867;28;20537;-64
2022/01/03 07:55:24;;;;;;;6.85;2.92;;;;;;;21.39;37.25;100002.88;5102110;28;20403;-63
2022/01/03 07:57:49;;;;;;;5.55;2.20;;;;;;;21.94;36.42;99992.47;5112416;28;20495;-63
2022/01/03 08:00:16;;;;;;;6.72;2.30;;;;;;;21.66;36.12;99976.81;5112192;28;20043;-64
2022/01/03 08:02:42;;;;;;;3.00;2.20;;;;;;;21.37;36.57;99988.53;5112053;28;20396;-64
2022/01/03 08:05:11;;;;;;;4.18;2.40;;;;;;;21.16;36.84;99988.81;5110581;28;20039;-64
2022/01/03 08:07:37;;;;;;;3.75;2.22;;;;;;;20.98;37.09;99982.84;5104954;28;20039;-64
2022/01/03 08:10:05;;;;;;;4.78;2.30;;;;;;;20.91;37.34;99991.00;5103048;28;20058;-63
2022/01/03 08:12:31;;;;;;;5.90;2.40;;;;;;;20.79;37.29;100002.25;5091592;28;20043;-64
2022/01/03 08:14:57;;;;;;;4.10;2.92;;;;;;;20.66;37.61;99976.53;5104074;28;20036;-64
2022/01/03 08:17:22;;;;;;;3.05;2.20;;;;;;;20.56;37.86;99960.38;5094690;28;20401;-63
2022/01/03 08:19:48;;;;;;;3.08;2.00;;;;;;;20.45;37.88;99960.13;5096940;28;20047;-64
2022/01/03 08:22:13;;;;;;;3.63;2.05;;;;;;;20.38;38.10;99975.78;5101207;28;20044;-54
2022/01/03 08:24:38;;;;;;;3.10;2.30;;;;;;;20.29;38.40;99965.66;5091123;28;20039;-54
2022/01/03 08:27:04;;;;;;;3.70;2.15;;;;;;;20.25;38.16;99978.66;5091444;28;20412;-53
2022/01/03 08:29:30;;;;;;;3.40;2.10;;;;;;;20.21;38.25;99983.28;5093367;28;20478;-54
2022/01/03 08:31:55;;;;;;;3.10;2.40;;;;;;;20.19;38.44;99982.84;5100949;28;20047;-53
2022/01/03 08:34:20;;;;;;;3.33;1.98;;;;;;;20.16;38.46;99986.34;5090294;28;20047;-54
2022/01/03 08:36:46;;;;;;;3.05;2.30;;;;;;;20.16;38.32;99985.53;5096498;28;20415;-53
2022/01/03 08:39:11;;;;;;;2.97;2.10;;;;;;;20.15;38.67;99987.53;5105262;28;20036;-57
2022/01/03 08:41:37;;;;;;;3.97;2.08;;;;;;;20.15;38.42;99995.84;5094574;28;20474;-57
2022/01/03 08:44:03;;;;;;;5.55;2.20;;;;;;;20.17;38.54;99999.06;5097979;28;20131;-58
2022/01/03 08:46:28;;;;;;;4.80;2.20;;;;;;;20.18;38.41;100003.47;5086767;28;20047;-57
2022/01/03 08:48:54;;;;;;;3.30;2.42;;;;;;;20.18;38.40;99995.13;5091112;28;20044;-57
2022/01/03 08:51:21;;;;;;;4.85;2.40;;;;;;;20.20;38.46;100003.91;5101637;28;20081;-57
2022/01/03 08:53:46;;;;;;;4.00;2.47;;;;;;;20.21;38.56;100018.59;5107527;28;20039;-58
2022/01/03 08:56:12;;;;;;;3.45;2.60;;;;;;;20.22;38.35;100015.47;5108357;28;20053;-57
2022/01/03 08:58:38;;;;;;;3.40;2.30;;;;;;;20.24;38.42;100004.81;5097216;28;20074;-57
2022/01/03 09:01:03;;;;;;;5.20;2.35;;;;;;;20.24;38.62;100004.81;5096645;28;20039;-57
2022/01/03 09:03:29;;;;;;;4.93;2.42;;;;;;;20.25;38.58;100000.88;5086411;28;20051;-55
2022/01/03 09:05:54;;;;;;;3.97;2.47;;;;;;;20.26;38.53;99996.91;5089174;28;20101;-55
2022/01/03 09:08:22;;;;;;;3.15;2.28;;;;;;;20.28;38.57;99993.78;5101682;28;20491;-55
2022/01/03 09:10:48;;;;;;;3.85;2.95;;;;;;;20.27;38.42;99998.53;5100769;28;20059;-55
2022/01/03 09:13:14;;;;;;;3.40;2.40;;;;;;;20.28;38.46;99996.56;5096098;28;20044;-55
2022/01/03 09:15:44;;;;;;;4.07;2.70;;;;;;;20.29;38.55;99992.66;5090263;28;20392;-55
2022/01/03 09:18:10;;;;;;;4.03;3.20;;;;;;;20.29;38.38;99982.34;5101283;28;20095;-55
2022/01/03 09:20:36;;;;;;;3.33;2.50;;;;;;;20.30;38.36;99983.13;5102157;28;20044;-58
2022/01/03 09:23:09;;;;;;;3.55;2.95;;;;;;;20.28;38.56;99977.91;5096570;28;20408;-58
2022/01/03 09:30:45;;;;;;;6.25;3.70;;;;;;;20.28;38.58;99983.47;5101376;28;20054;-58
2022/01/03 09:33:10;;;;;;;9.95;3.25;;;;;;;20.29;38.66;99992.66;5100896;28;20412;-58
2022/01/03 09:35:36;;;;;;;5.32;3.40;;;;;;;20.27;38.59;99981.06;5087346;28;20054;-58
2022/01/03 09:38:01;;;;;;;5.38;3.45;;;;;;;20.29;38.68;99978.75;5085901;28;20047;-58
2022/01/03 09:40:27;;;;;;;11.18;3.53;;;;;;;20.27;38.58;99973.53;5076580;28;20621;-58
2022/01/03 09:42:57;;;;;;;5.45;3.38;;;;;;;20.26;38.76;99980.25;5103902;28;20062;-58
2022/01/03 09:45:27;;;;;;;5.63;3.40;;;;;;;20.26;38.70;99971.91;5101808;28;20031;-58
2022/01/03 09:47:55;;;;;;;6.43;3.03;;;;;;;20.24;38.70;99970.69;5104143;28;20051;-58
2022/01/03 09:50:22;;;;;;;5.88;3.35;;;;;;;20.22;38.72;99959.13;5097332;28;20040;-58
2022/01/03 09:52:49;;;;;;;6.60;3.53;;;;;;;20.21;38.87;99963.84;5093494;28;20094;-58
2022/01/03 09:55:16;;;;;;;6.35;4.07;;;;;;;20.20;38.97;99958.66;5097581;28;20181;-58
2022/01/03 09:57:46;;;;;;;5.30;3.50;;;;;;;20.18;38.91;99961.00;5096780;28;20055;-58
2022/01/03 10:00:14;;;;;;;6.38;3.88;;;;;;;20.17;38.93;99960.19;5096400;28;20097;-56
2022/01/03 10:02:39;;;;;;;9.60;3.72;;;;;;;20.15;39.04;99961.72;5101134;28;20415;-56
2022/01/03 10:05:05;;;;;;;6.65;3.60;;;;;;;20.10;38.99;99962.78;5101272;28;20514;-56
2022/01/03 10:07:31;;;;;;;6.28;4.00;;;;;;;20.09;38.95;99963.13;5095749;28;20445;-56
2022/01/03 10:09:57;;;;;;;5.55;3.70;;;;;;;20.08;39.15;99956.78;5104074;28;20047;-56
2022/01/03 10:12:22;;;;;;;6.10;4.07;;;;;;;20.06;39.16;99957.13;5099832;28;20040;-56
2022/01/03 10:14:48;;;;;;;6.40;3.90;;;;;;;20.04;39.16;99966.97;5096058;28;20048;-58
2022/01/03 10:17:14;;;;;;;7.05;3.88;;;;;;;20.03;39.27;99970.91;5087451;28;20039;-58
2022/01/03 10:19:53;;;;;;;6.15;4.00;;;;;;;19.95;39.46;99958.81;5102420;28;20046;-58
2022/01/03 10:22:21;;;;;;;6.05;4.13;;;;;;;19.97;39.58;99950.13;5101067;28;20035;-58
2022/01/03 10:24:47;;;;;;;6.22;4.35;;;;;;;19.97;39.77;99950.13;5096164;28;20412;-59
2022/01/03 10:27:13;;;;;;;7.32;4.20;;;;;;;19.94;39.89;99939.75;5095746;28;20051;-58
2022/01/03 10:29:40;;;;;;;6.05;4.57;;;;;;;19.95;40.12;99935.81;5099993;28;20048;-56
2022/01/03 10:32:10;;;;;;;11.40;4.82;;;;;;;19.92;40.33;99940.06;5092831;28;20034;-56
2022/01/03 10:34:36;;;;;;;6.13;4.60;;;;;;;19.92;40.63;99931.75;5097516;28;20047;-55
2022/01/03 10:37:11;;;;;;;9.32;5.00;;;;;;;19.91;40.66;99923.78;5099778;28;20032;-55
2022/01/03 10:39:37;;;;;;;6.80;4.82;;;;;;;19.88;40.83;99910.63;5101883;28;20085;-56
2022/01/03 10:42:13;;;;;;;11.10;5.60;;;;;;;19.86;40.94;99910.16;5087137;28;20043;-56
2022/01/03 10:44:43;;;;;;;7.97;5.57;;;;;;;19.86;41.09;99908.22;5102917;28;20046;-58
2022/01/03 10:47:10;;;;;;;7.03;5.18;;;;;;;19.85;41.01;99903.00;5099013;28;20044;-56
2022/01/03 10:49:39;;;;;;;6.93;5.13;;;;;;;19.81;40.90;99905.69;5100777;28;20533;-56
2022/01/03 10:52:16;;;;;;;7.10;5.25;;;;;;;19.76;40.88;99892.06;5092060;28;21350;-56
2022/01/03 10:54:44;;;;;;;6.63;5.10;;;;;;;19.76;40.86;99901.19;5103293;28;20040;-56
2022/01/03 10:57:10;;;;;;;7.07;5.25;;;;;;;19.74;40.72;99897.97;5101925;28;20077;-56
2022/01/03 10:59:36;;;;;;;6.28;5.22;;;;;;;19.75;40.80;99882.13;5099329;28;20044;-56
2022/01/03 11:02:05;;;;;;;6.15;4.95;;;;;;;19.73;40.74;99884.47;5102449;28;20412;-56
2022/01/03 11:04:51;;;;;;;6.47;4.93;;;;;;;19.71;40.97;99872.88;5106401;28;20365;-56
2022/01/03 11:13:11;;;;;;;7.50;5.78;;;;;;;19.69;41.03;99834.41;5095071;28;20055;-58
2022/01/03 11:16:01;;;;;;;7.40;5.40;;;;;;;19.68;41.00;99829.22;5109488;28;20058;-58
2022/01/03 11:18:56;;;;;;;7.13;5.60;;;;;;;19.67;40.90;99842.28;5094304;28;20540;-58
2022/01/03 11:21:24;;;;;;;6.55;5.35;;;;;;;19.67;40.83;99824.81;5084212;28;20040;-58
2022/01/03 11:23:58;;;;;;;7.45;5.50;;;;;;;19.65;40.81;99816.06;5104332;28;20051;-58
2022/01/03 11:26:24;;;;;;;5.75;4.72;;;;;;;19.65;40.94;99803.00;5105828;28;20108;-58
2022/01/03 11:28:51;;;;;;;9.27;5.60;;;;;;;19.67;40.98;99797.06;5103110;28;20470;-58
2022/01/03 11:31:19;;;;;;;7.72;5.20;;;;;;;19.68;40.92;99765.38;5100804;28;20511;-58
2022/01/03 11:33:47;;;;;;;6.97;5.40;;;;;;;19.68;40.92;99749.53;5108156;28;20036;-56
2022/01/03 11:36:13;;;;;;;9.70;5.63;;;;;;;19.68;40.93;99748.72;5101157;28;20139;-56
2022/01/03 11:38:40;;;;;;;7.22;5.50;;;;;;;19.68;40.97;99752.31;5094220;28;20431;-56
2022/01/03 11:41:09;;;;;;;6.18;4.82;;;;;;;19.73;40.96;99762.34;5103543;28;20063;-56
2022/01/03 11:43:36;;;;;;;6.93;5.47;;;;;;;19.74;40.96;99756.44;5090243;28;20055;-56
2022/01/03 11:46:03;;;;;;;6.85;5.28;;;;;;;19.76;41.04;99747.72;5098255;28;20101;-56
2022/01/03 11:48:29;;;;;;;6.00;4.90;;;;;;;19.76;41.13;99734.66;5104191;28;20054;-56